createdAt,value
2022-11-09T00:03:45.283Z,15.8
2022-11-09T00:09:21.722Z,15.8
2022-11-09T00:14:57.558Z,15.7
2022-11-09T00:20:32.630Z,15.7
2022-11-09T00:26:08.362Z,15.7
2022-11-09T00:31:43.173Z,15.7
2022-11-09T00:37:18.393Z,15.8
2022-11-09T00:42:54.296Z,15.7
2022-11-09T00:48:55.336Z,15.7
2022-11-09T00:54:27.798Z,15.7
2022-11-09T01:00:02.930Z,15.6
2022-11-09T01:05:38.226Z,15.6
2022-11-09T01:11:14.102Z,15.6
2022-11-09T01:16:49.155Z,15.6
2022-11-09T01:22:24.183Z,15.6
2022-11-09T01:27:59.104Z,15.7
2022-11-09T01:33:33.810Z,15.7
2022-11-09T01:39:08.699Z,15.7
2022-11-09T01:44:44.309Z,15.7
2022-11-09T01:50:19.732Z,15.7
2022-11-09T01:55:54.762Z,15.7
2022-11-09T02:01:29.573Z,15.7
2022-11-09T02:07:05.467Z,15.7
2022-11-09T02:12:42.026Z,15.7
2022-11-09T02:18:16.958Z,15.6
2022-11-09T02:23:52.037Z,15.6
2022-11-09T02:29:27.088Z,15.6
2022-11-09T02:35:02.284Z,15.6
2022-11-09T02:40:44.535Z,15.6
2022-11-09T02:46:41.512Z,15.6
2022-11-09T02:52:14.967Z,15.5
2022-11-09T02:57:50.186Z,15.5
2022-11-09T03:03:24.982Z,15.5
2022-11-09T03:08:59.800Z,15.5
2022-11-09T03:14:34.897Z,15.5
2022-11-09T03:20:09.781Z,15.5
2022-11-09T03:25:44.888Z,15.5
2022-11-09T03:31:21.148Z,15.5
2022-11-09T03:36:57.160Z,15.6
2022-11-09T03:42:32.108Z,15.5
2022-11-09T03:48:28.979Z,15.5
2022-11-09T03:54:03.339Z,15.4
2022-11-09T03:59:38.219Z,15.4
2022-11-09T04:05:13.207Z,15.3
2022-11-09T04:10:48.515Z,15.3
2022-11-09T04:16:24.379Z,15.3
2022-11-09T04:21:59.237Z,15.2
2022-11-09T04:27:34.679Z,15.2
2022-11-09T04:33:11.023Z,15.1
2022-11-09T04:38:46.170Z,15.1
2022-11-09T04:44:21.035Z,15
2022-11-09T04:49:56.747Z,15
2022-11-09T04:55:32.264Z,14.9
2022-11-09T05:01:07.429Z,14.9
2022-11-09T05:06:42.658Z,14.9
2022-11-09T05:12:20.509Z,14.9
2022-11-09T05:17:56.660Z,15
2022-11-09T05:23:31.861Z,15
2022-11-09T05:29:06.999Z,15.1
2022-11-09T05:34:42.313Z,15.1
2022-11-09T05:40:18.061Z,15.1
2022-11-09T05:45:53.132Z,15.1
2022-11-09T05:51:29.025Z,15.1
2022-11-09T05:57:04.313Z,15
2022-11-09T06:02:39.410Z,14.9
2022-11-09T06:08:16.521Z,14.9
2022-11-09T06:13:51.603Z,14.9
2022-11-09T06:19:27.455Z,14.9
2022-11-09T06:25:03.424Z,14.9
2022-11-09T06:30:38.542Z,14.9
2022-11-09T06:36:14.735Z,14.9
2022-11-09T06:41:49.790Z,14.8
2022-11-09T06:47:46.630Z,14.8
2022-11-09T06:53:19.687Z,14.8
2022-11-09T06:59:01.022Z,14.8
2022-11-09T07:04:36.821Z,14.8
2022-11-09T07:10:11.857Z,14.9
2022-11-09T07:15:48.069Z,14.9
2022-11-09T07:21:23.325Z,14.9
2022-11-09T07:26:58.417Z,14.9
2022-11-09T07:33:07.230Z,15
2022-11-09T07:38:45.954Z,15
2022-11-09T07:44:21.243Z,15.1
2022-11-09T07:49:57.621Z,15.1
2022-11-09T07:55:33.529Z,15.2
2022-11-09T08:01:09.804Z,15.2
2022-11-09T08:06:44.975Z,15.2
2022-11-09T08:12:20.519Z,15.2
2022-11-09T08:17:56.725Z,15.2
2022-11-09T08:23:31.593Z,15.2
2022-11-09T08:29:06.790Z,15.2
2022-11-09T08:34:42.540Z,15.3
2022-11-09T08:40:17.745Z,15.4
2022-11-09T08:45:52.842Z,15.6
2022-11-09T08:51:29.293Z,16
2022-11-09T08:57:05.933Z,16.8
2022-11-09T09:02:41.890Z,17
2022-11-09T09:08:16.974Z,17.4
2022-11-09T09:13:54.647Z,17.3
2022-11-09T09:19:29.609Z,17.4
2022-11-09T09:25:04.689Z,17.7
2022-11-09T09:30:40.050Z,17.5
2022-11-09T09:36:15.207Z,17.3
2022-11-09T09:41:50.063Z,17.4
2022-11-09T09:47:25.151Z,17.4
2022-11-09T09:53:22.484Z,17.4
2022-11-09T09:59:01.109Z,17.2
2022-11-09T10:04:36.198Z,17
2022-11-09T10:10:13.417Z,16.6
2022-11-09T10:15:48.557Z,16.4
2022-11-09T10:21:23.461Z,16.3
2022-11-09T10:26:59.356Z,16.9
2022-11-09T10:32:34.639Z,17
2022-11-09T10:38:10.732Z,17.4
2022-11-09T10:43:46.949Z,17.3
2022-11-09T10:49:22.280Z,17
2022-11-09T10:54:57.564Z,17.4
2022-11-09T11:00:32.563Z,17.6
2022-11-09T11:06:08.421Z,17.3
2022-11-09T11:11:43.646Z,17.7
2022-11-09T11:17:18.709Z,17.8
2022-11-09T11:22:54.573Z,18
2022-11-09T11:28:30.121Z,17.8
2022-11-09T11:34:05.075Z,18.3
2022-11-09T11:39:40.107Z,18.3
2022-11-09T11:45:40.955Z,18.8
2022-11-09T11:51:17.539Z,18.5
2022-11-09T11:56:52.932Z,18.2
2022-11-09T12:02:27.991Z,18.5
2022-11-09T12:08:04.668Z,18.1
2022-11-09T12:13:39.720Z,17.7
2022-11-09T12:19:27.114Z,16.7
2022-11-09T12:25:11.034Z,15.6
2022-11-09T12:30:46.457Z,15.9
2022-11-09T12:36:21.705Z,16.2
2022-11-09T12:41:57.959Z,16.1
2022-11-09T12:47:32.724Z,15.9
2022-11-09T12:53:08.599Z,15.7
2022-11-09T12:58:43.597Z,15.4
2022-11-09T13:04:18.821Z,15
2022-11-09T13:09:55.063Z,15.2
2022-11-09T13:15:29.732Z,15.5
2022-11-09T13:21:04.759Z,15.6
2022-11-09T13:26:40.787Z,15.8
2022-11-09T13:32:16.952Z,15.8
2022-11-09T13:37:51.827Z,15.7
2022-11-09T13:43:26.698Z,15.7
2022-11-09T13:49:04.245Z,16
2022-11-09T13:54:40.846Z,16.2
2022-11-09T14:00:16.263Z,16
2022-11-09T14:05:52.292Z,15.7
2022-11-09T14:11:30.625Z,15.9
2022-11-09T14:17:07.731Z,15.6
2022-11-09T14:22:43.392Z,15.5
2022-11-09T14:28:25.731Z,15
2022-11-09T14:34:02.896Z,15.1
2022-11-09T14:39:45.616Z,15.2
2022-11-09T14:45:21.659Z,15.2
2022-11-09T14:50:58.223Z,15.2
2022-11-09T14:56:33.375Z,15.1
2022-11-09T15:02:15.443Z,15
2022-11-09T15:07:58.171Z,14.7
2022-11-09T15:13:49.694Z,14.8
2022-11-09T15:19:43.503Z,15.1
2022-11-09T15:25:19.455Z,14.9
2022-11-09T15:30:59.663Z,14.6
2022-11-09T15:36:46.336Z,14.7
2022-11-09T15:42:33.833Z,14.6
2022-11-09T15:48:29.884Z,14.5
2022-11-09T15:54:20.943Z,14.3
2022-11-09T15:59:56.068Z,14.1
2022-11-09T16:05:31.155Z,14.1
2022-11-09T16:11:06.433Z,14.1
2022-11-09T16:16:41.402Z,14.1
2022-11-09T16:22:16.211Z,14
2022-11-09T16:27:52.254Z,13.9
2022-11-09T16:33:27.779Z,13.8
2022-11-09T16:39:05.975Z,13.8
2022-11-09T16:44:40.828Z,13.7
2022-11-09T16:50:15.876Z,13.7
2022-11-09T16:55:50.806Z,13.5
2022-11-09T17:01:25.598Z,13.5
2022-11-09T17:07:01.798Z,13.5
2022-11-09T17:12:38.131Z,13.3
2022-11-09T17:18:13.868Z,13.4
2022-11-09T17:23:48.886Z,13.4
2022-11-09T17:29:23.793Z,13.4
2022-11-09T17:35:00.975Z,13.2
2022-11-09T17:40:36.054Z,13.3
2022-11-09T17:46:10.888Z,13.3
2022-11-09T17:51:45.567Z,13.3
2022-11-09T17:57:21.599Z,13.1
2022-11-09T18:02:56.604Z,13.1
2022-11-09T18:08:31.959Z,13.7
2022-11-09T18:14:06.916Z,14
2022-11-09T18:19:42.459Z,14.1
2022-11-09T18:25:17.650Z,14.2
2022-11-09T18:30:56.860Z,14.2
2022-11-09T18:36:31.761Z,14.3
2022-11-09T18:42:06.449Z,14.2
2022-11-09T18:48:06.350Z,14.2
2022-11-09T18:53:38.821Z,14.1
2022-11-09T18:59:13.610Z,14.1
2022-11-09T19:04:48.417Z,14.1
2022-11-09T19:10:24.366Z,14.1
2022-11-09T19:16:00.128Z,14
2022-11-09T19:21:36.364Z,14
2022-11-09T19:27:11.163Z,13.9
2022-11-09T19:32:46.268Z,13.9
2022-11-09T19:38:21.654Z,13.9
2022-11-09T19:43:58.853Z,13.9
2022-11-09T19:49:33.833Z,13.8
2022-11-09T19:55:08.669Z,13.8
2022-11-09T20:00:44.774Z,13.8
2022-11-09T20:06:20.834Z,13.8
2022-11-09T20:11:56.312Z,13.7
2022-11-09T20:17:32.625Z,13.7
2022-11-09T20:23:07.816Z,13.7
2022-11-09T20:28:42.631Z,13.6
2022-11-09T20:34:17.904Z,13.6
2022-11-09T20:39:54.180Z,13.6
2022-11-09T20:45:30.354Z,13.6
2022-11-09T20:51:05.270Z,13.5
2022-11-09T20:56:40.573Z,13.5
2022-11-09T21:02:15.917Z,13.5
2022-11-09T21:07:52.455Z,13.4
2022-11-09T21:13:28.624Z,13.4
2022-11-09T21:19:05.005Z,13.4
2022-11-09T21:24:40.444Z,13.4
2022-11-09T21:30:15.633Z,13.4
2022-11-09T21:35:51.563Z,13.3
2022-11-09T21:41:28.293Z,13.3
2022-11-09T21:47:31.024Z,13.3
2022-11-09T21:53:06.240Z,13.2
2022-11-09T21:58:42.083Z,13.2
2022-11-09T22:04:17.205Z,13.1
2022-11-09T22:10:09.220Z,13.1
2022-11-09T22:15:46.687Z,13.1
2022-11-09T22:21:21.460Z,13.1
2022-11-09T22:26:56.553Z,13.1
2022-11-09T22:32:31.700Z,13
2022-11-09T22:38:06.776Z,13
2022-11-09T22:43:41.670Z,13
2022-11-09T22:49:38.465Z,13
2022-11-09T22:55:11.135Z,12.9
2022-11-09T23:00:46.134Z,12.9
2022-11-09T23:06:21.182Z,12.9
2022-11-09T23:11:56.317Z,12.8
2022-11-09T23:17:31.098Z,12.7
2022-11-09T23:23:06.974Z,12.7
2022-11-09T23:28:41.747Z,12.6
2022-11-09T23:34:25.378Z,12.6
2022-11-09T23:40:00.115Z,12.5
2022-11-09T23:45:35.837Z,12.5
2022-11-09T23:51:10.857Z,12.5
2022-11-09T23:56:45.738Z,12.4
